Time;durP1;ratioP1;P1;durP2;ratioP2;P2;SDS_P1;SDS_P2;PMS_P1;PMS_P2;Temp;Humidity;BMP_temperature;BMP_pressure;BME280_temperature;BME280_humidity;BME280_pressure;Samples;Min_cycle;Max_cycle;Signal;HPM_P1;HPM_P2
2023/04/07 00:02:03;;;;;;;3.67;2.00;;;8.10;99.90;;;;;;20654483;28;20085;-81
2023/04/07 00:12:04;;;;;;;2.40;1.80;;;7.60;99.90;;;;;;20671828;28;20102;-82
2023/04/07 00:33:33;;;;;;;6.57;3.88;;;6.80;99.90;;;;;;20677140;28;20030;-82
2023/04/07 00:43:34;;;;;;;6.93;3.27;;;6.60;99.90;;;;;;20677905;28;20033;-81
2023/04/07 00:53:35;;;;;;;4.33;2.37;;;6.50;99.90;;;;;;20677325;28;20301;-80
2023/04/07 01:03:48;;;;;;;5.47;2.72;;;6.80;99.90;;;;;;20677481;28;20038;-82
2023/04/07 01:13:50;;;;;;;4.38;2.28;;;6.80;99.90;;;;;;20656859;28;20682;-84
2023/04/07 01:24:28;;;;;;;3.97;2.35;;;6.90;99.90;;;;;;20658378;28;20086;-80
2023/04/07 01:34:31;;;;;;;3.92;2.30;;;6.50;99.90;;;;;;20695826;28;20034;-81
2023/04/07 01:44:33;;;;;;;7.35;2.70;;;6.60;99.90;;;;;;20670009;28;20030;-82
2023/04/07 01:54:35;;;;;;;3.65;1.92;;;6.90;99.90;;;;;;20591966;28;20027;-81
2023/04/07 02:04:43;;;;;;;8.07;2.40;;;6.70;99.90;;;;;;20590592;28;20031;-83
2023/04/07 02:14:45;;;;;;;5.85;2.60;;;6.40;99.90;;;;;;20611252;28;20041;-82
2023/04/07 02:24:49;;;;;;;4.68;2.58;;;6.40;99.90;;;;;;20670423;28;20035;-83
2023/04/07 02:34:50;;;;;;;3.20;1.65;;;6.30;99.90;;;;;;20707546;23;20073;-78
2023/04/07 02:44:51;;;;;;;5.50;1.63;;;6.00;99.90;;;;;;20676514;28;20030;-79
2023/04/07 02:54:51;;;;;;;3.90;2.33;;;6.20;99.90;;;;;;20680336;28;20057;-79
2023/04/07 03:04:56;;;;;;;2.50;1.80;;;6.30;99.90;;;;;;20679473;28;20037;-79
2023/04/07 03:15:01;;;;;;;4.60;1.83;;;6.00;99.90;;;;;;20676621;28;20069;-80
2023/04/07 03:25:03;;;;;;;3.08;2.20;;;6.00;99.90;;;;;;20678426;28;20060;-79
2023/04/07 03:35:04;;;;;;;4.93;2.63;;;6.20;99.90;;;;;;20661262;28;20030;-80
2023/04/07 03:45:05;;;;;;;;;;;6.20;99.90;;;;;;20648535;28;20070;-80
2023/04/07 03:55:08;;;;;;;3.20;1.80;;;6.20;99.90;;;;;;20672178;28;20226;-79
2023/04/07 04:05:09;;;;;;;7.25;2.20;;;6.00;99.90;;;;;;20692441;28;20125;-79
2023/04/07 04:15:10;;;;;;;2.20;1.90;;;6.10;99.90;;;;;;20674735;28;20031;-80
2023/04/07 04:25:12;;;;;;;3.65;2.05;;;5.80;99.90;;;;;;20669665;28;20030;-79
2023/04/07 04:35:17;;;;;;;8.65;4.03;;;5.60;99.90;;;;;;20671254;28;20089;-79
2023/04/07 04:45:28;;;;;;;6.50;3.03;;;5.80;99.90;;;;;;20671805;28;20034;-79
2023/04/07 04:55:29;;;;;;;;;;;5.80;99.90;;;;;;20668882;28;20041;-78
2023/04/07 05:05:31;;;;;;;4.32;1.90;;;5.60;99.90;;;;;;20686932;28;19916;-80
2023/04/07 05:15:32;;;;;;;5.60;2.13;;;5.70;99.90;;;;;;20671751;28;20030;-79
2023/04/07 05:25:34;;;;;;;7.00;3.30;;;5.70;99.90;;;;;;20671589;28;20035;-80
2023/04/07 05:35:38;;;;;;;5.45;2.40;;;5.80;99.90;;;;;;20650197;28;20084;-77
2023/04/07 05:45:39;;;;;;;3.47;2.30;;;5.40;99.90;;;;;;20648844;28;20030;-79
2023/04/07 05:55:42;;;;;;;3.45;2.25;;;5.20;99.90;;;;;;20651876;28;20038;-77
2023/04/07 06:05:49;;;;;;;3.88;2.13;;;5.40;99.90;;;;;;20654427;28;20037;-79
2023/04/07 06:15:56;;;;;;;5.18;2.40;;;6.00;99.90;;;;;;20677729;28;20555;-79
2023/04/07 06:25:57;;;;;;;3.85;2.10;;;6.40;99.90;;;;;;20666155;28;20034;-79
2023/04/07 06:35:58;;;;;;;6.22;3.40;;;6.80;99.90;;;;;;20670927;28;20085;-81
2023/04/07 06:45:59;;;;;;;10.23;4.15;;;6.70;99.90;;;;;;20667721;28;20030;-79
2023/04/07 06:56:08;;;;;;;10.73;3.85;;;6.30;99.90;;;;;;20664385;28;20038;-80
2023/04/07 07:06:08;;;;;;;7.95;4.05;;;6.50;99.90;;;;;;20672865;28;20393;-81
2023/04/07 07:16:11;;;;;;;12.27;4.17;;;6.70;99.90;;;;;;20659553;28;20034;-81
2023/04/07 07:26:12;;;;;;;16.33;4.43;;;6.60;99.90;;;;;;20671639;28;20030;-80
2023/04/07 07:36:13;;;;;;;6.10;3.77;;;6.60;99.90;;;;;;20662142;28;20035;-81
2023/04/07 07:46:14;;;;;;;5.60;3.70;;;6.60;99.90;;;;;;20649415;28;20281;-79
2023/04/07 07:56:15;;;;;;;7.22;3.83;;;6.70;99.90;;;;;;20678378;28;20113;-80
2023/04/07 08:06:15;;;;;;;11.67;5.37;;;7.00;99.90;;;;;;20682076;28;20045;-81
2023/04/07 08:16:16;;;;;;;9.03;4.40;;;7.20;99.90;;;;;;20674317;28;20065;-78
2023/04/07 08:26:17;;;;;;;11.03;4.00;;;7.30;99.90;;;;;;20683252;28;20034;-79
2023/04/07 08:36:18;;;;;;;6.07;3.30;;;7.20;99.90;;;;;;20668642;28;20030;-81
2023/04/07 08:46:22;;;;;;;5.20;3.35;;;7.20;99.90;;;;;;20774269;23;20065;-82
2023/04/07 08:56:24;;;;;;;4.32;2.53;;;7.30;99.90;;;;;;20791528;28;20068;-83
2023/04/07 09:06:26;;;;;;;3.22;1.90;;;7.70;99.90;;;;;;20763445;28;20328;-83
2023/04/07 09:16:29;;;;;;;2.47;1.77;;;8.10;99.90;;;;;;20771160;28;20036;-82
2023/04/07 09:26:30;;;;;;;2.58;1.42;;;8.70;99.90;;;;;;20817611;28;20026;-81
2023/04/07 09:36:41;;;;;;;1.80;1.20;;;9.00;99.90;;;;;;20809482;28;20037;-84
2023/04/07 09:46:56;;;;;;;2.00;1.20;;;9.00;99.90;;;;;;20756977;28;20038;-82
2023/04/07 09:56:58;;;;;;;2.65;0.77;;;9.10;99.90;;;;;;20751133;28;20025;-81
2023/04/07 10:07:02;;;;;;;2.28;1.17;;;9.00;99.90;;;;;;20750592;28;20034;-82
2023/04/07 10:17:03;;;;;;;17.70;7.97;;;9.00;99.90;;;;;;20747782;28;20392;-83
2023/04/07 10:27:08;;;;;;;1.42;0.90;;;8.70;99.90;;;;;;20754587;28;20058;-82
2023/04/07 10:37:18;;;;;;;1.27;1.05;;;8.50;99.90;;;;;;20768736;28;20057;-80
2023/04/07 10:47:19;;;;;;;11.50;4.17;;;8.10;99.90;;;;;;20758698;28;20049;-82
2023/04/07 10:57:22;;;;;;;2.07;1.47;;;8.20;99.90;;;;;;20760411;28;20125;-80
2023/04/07 11:07:44;;;;;;;1.05;0.82;;;7.80;99.90;;;;;;20731957;28;20088;-79
2023/04/07 11:17:45;;;;;;;;;;;7.80;99.90;;;;;;20783131;28;20049;-80
2023/04/07 11:27:46;;;;;;;2.10;1.10;;;7.60;99.90;;;;;;20771963;28;19913;-79
2023/04/07 11:37:47;;;;;;;1.02;0.93;;;7.40;99.90;;;;;;20757935;28;20030;-80
2023/04/07 11:47:49;;;;;;;1.07;0.87;;;7.50;99.90;;;;;;20765340;28;20045;-80
2023/04/07 11:57:50;;;;;;;0.63;0.60;;;7.70;99.90;;;;;;20750079;28;20065;-83
2023/04/07 12:07:53;;;;;;;1.27;0.70;;;7.40;99.90;;;;;;20738743;28;20476;-82
2023/04/07 12:17:54;;;;;;;1.40;0.90;;;7.30;99.90;;;;;;20776547;28;20064;-79
2023/04/07 12:27:55;;;;;;;0.70;0.68;;;7.50;99.90;;;;;;20759449;28;20033;-82
2023/04/07 12:37:55;;;;;;;7.47;3.13;;;7.60;99.90;;;;;;20741313;28;20034;-80
2023/04/07 12:47:57;;;;;;;4.43;2.60;;;7.80;99.90;;;;;;20760759;28;20049;-81
2023/04/07 12:57:58;;;;;;;;;;;7.60;99.90;;;;;;20796174;28;20506;-81
2023/04/07 13:07:59;;;;;;;1.27;0.70;;;7.40;99.90;;;;;;20757348;28;19952;-81
2023/04/07 13:18:00;;;;;;;1.90;0.80;;;7.60;99.90;;;;;;20767650;28;20038;-81
2023/04/07 13:28:02;;;;;;;0.70;0.50;;;7.90;99.90;;;;;;20759643;28;20285;-83
2023/04/07 13:38:03;;;;;;;1.70;0.65;;;7.80;99.90;;;;;;20751911;28;20507;-82
2023/04/07 13:48:04;;;;;;;0.38;0.38;;;8.00;99.90;;;;;;20746438;28;20045;-80
2023/04/07 13:58:05;;;;;;;0.30;0.30;;;8.00;99.90;;;;;;20740149;28;20038;-81
2023/04/07 14:08:05;;;;;;;1.17;0.80;;;8.20;99.90;;;;;;20725288;28;20038;-80
2023/04/07 14:18:06;;;;;;;5.77;2.17;;;8.00;99.90;;;;;;20738911;28;20034;-80
2023/04/07 14:28:08;;;;;;;1.03;0.80;;;7.60;99.90;;;;;;20776767;28;20038;-83
2023/04/07 14:38:09;;;;;;;1.08;0.80;;;7.60;99.90;;;;;;20758206;23;20343;-76
2023/04/07 14:48:10;;;;;;;2.05;1.20;;;8.30;99.90;;;;;;20698947;28;20465;-76
2023/04/07 14:58:11;;;;;;;;;;;8.60;99.90;;;;;;20710411;28;20044;-76
2023/04/07 15:08:12;;;;;;;1.00;0.80;;;8.30;99.90;;;;;;20716104;28;19910;-76
2023/04/07 15:18:12;;;;;;;0.63;0.60;;;8.30;99.90;;;;;;20682046;28;20288;-76
2023/04/07 15:28:13;;;;;;;1.20;0.80;;;8.50;99.90;;;;;;20682685;28;20548;-76
2023/04/07 15:38:14;;;;;;;1.03;0.73;;;8.40;99.90;;;;;;20678809;28;20551;-77
2023/04/07 15:48:15;;;;;;;0.53;0.53;;;8.10;99.90;;;;;;20681317;28;20038;-77
2023/04/07 15:58:15;;;;;;;0.83;0.70;;;7.90;99.90;;;;;;20658315;28;20050;-76
2023/04/07 16:08:16;;;;;;;1.00;0.77;;;8.00;99.90;;;;;;20671199;28;20066;-77
2023/04/07 16:18:18;;;;;;;1.97;1.10;;;7.70;99.90;;;;;;20682856;28;20941;-77
2023/04/07 16:28:19;;;;;;;1.33;1.00;;;7.70;99.90;;;;;;20679397;28;20290;-79
2023/04/07 16:38:19;;;;;;;1.80;1.23;;;7.60;99.90;;;;;;20718860;28;20031;-79
2023/04/07 16:48:20;;;;;;;2.93;1.10;;;7.60;99.90;;;;;;20672594;28;20038;-79
2023/04/07 16:58:21;;;;;;;1.80;1.00;;;7.60;99.90;;;;;;20684820;28;20724;-78
2023/04/07 17:08:24;;;;;;;1.60;1.07;;;7.40;99.90;;;;;;20704415;28;20034;-78
2023/04/07 17:18:25;;;;;;;1.60;1.17;;;7.30;99.90;;;;;;20679911;28;20049;-78
2023/04/07 17:28:28;;;;;;;3.63;1.60;;;7.30;99.90;;;;;;20701313;28;20297;-78
2023/04/07 17:38:29;;;;;;;2.28;1.52;;;7.10;99.90;;;;;;20682736;28;20057;-76
2023/04/07 17:48:31;;;;;;;3.22;1.42;;;7.00;99.90;;;;;;20671528;28;20057;-78
2023/04/07 17:58:32;;;;;;;1.77;1.40;;;6.90;99.90;;;;;;20681945;28;20045;-77
2023/04/07 18:08:33;;;;;;;1.92;1.40;;;6.80;99.90;;;;;;20706069;28;20033;-78
2023/04/07 18:18:36;;;;;;;3.50;1.20;;;6.70;99.90;;;;;;20707373;28;20030;-78
2023/04/07 18:28:37;;;;;;;1.38;1.10;;;6.60;99.90;;;;;;20696159;28;20061;-78
2023/04/07 18:38:38;;;;;;;2.28;1.50;;;6.60;99.90;;;;;;20708256;28;20037;-78
2023/04/07 18:48:42;;;;;;;6.32;1.70;;;6.50;99.90;;;;;;20680583;28;20408;-78
2023/04/07 18:58:44;;;;;;;2.13;1.30;;;6.50;99.90;;;;;;20676269;28;20214;-78
2023/04/07 19:08:45;;;;;;;1.90;1.35;;;6.40;99.90;;;;;;20698911;28;20061;-77
2023/04/07 19:18:46;;;;;;;3.83;1.92;;;6.40;99.90;;;;;;20698970;28;20032;-77
2023/04/07 19:28:48;;;;;;;2.97;1.50;;;6.40;99.90;;;;;;20731977;28;20040;-76
2023/04/07 19:38:48;;;;;;;2.47;1.77;;;6.40;99.90;;;;;;20734941;28;20026;-77
2023/04/07 19:48:50;;;;;;;3.37;2.07;;;6.30;99.90;;;;;;20692469;28;20049;-76
2023/04/07 19:58:50;;;;;;;;;;;6.20;99.90;;;;;;20695283;28;20066;-76
2023/04/07 20:08:51;;;;;;;3.60;2.13;;;6.20;99.90;;;;;;20663136;28;19980;-76
2023/04/07 20:18:52;;;;;;;5.57;2.72;;;6.30;99.90;;;;;;20657754;28;20368;-76
2023/04/07 20:28:53;;;;;;;4.13;2.10;;;6.30;99.90;;;;;;20666333;28;20022;-77
2023/04/07 20:48:57;;;;;;;4.88;2.72;;;6.30;99.90;;;;;;20641893;28;20512;-77
2023/04/07 20:58:58;;;;;;;4.53;2.70;;;6.20;99.90;;;;;;20636863;28;20031;-79
2023/04/07 21:08:58;;;;;;;5.85;2.63;;;6.30;99.90;;;;;;20622738;28;20406;-80
2023/04/07 21:18:59;;;;;;;4.57;2.53;;;6.30;99.90;;;;;;20717350;28;20057;-80
2023/04/07 21:29:00;;;;;;;3.60;2.50;;;6.20;99.90;;;;;;20721686;28;20034;-80
2023/04/07 21:39:01;;;;;;;3.83;2.70;;;6.20;99.90;;;;;;20698909;28;20092;-78
2023/04/07 21:49:02;;;;;;;3.73;2.63;;;6.30;99.90;;;;;;20732129;28;20045;-81
2023/04/07 21:59:03;;;;;;;2.97;2.33;;;6.10;99.90;;;;;;20728726;28;20037;-78
2023/04/07 22:09:05;;;;;;;6.93;2.50;;;6.10;99.90;;;;;;20722589;28;20430;-78
2023/04/07 22:19:06;;;;;;;3.50;2.70;;;6.00;99.90;;;;;;20726848;28;20080;-80
2023/04/07 22:29:08;;;;;;;4.78;2.78;;;6.00;99.90;;;;;;20678698;28;20034;-81
2023/04/07 22:39:09;;;;;;;5.22;2.97;;;5.90;99.90;;;;;;20712938;28;20030;-80
2023/04/07 22:49:10;;;;;;;5.55;3.35;;;5.90;99.90;;;;;;20718160;28;20058;-79
2023/04/07 22:59:11;;;;;;;6.32;3.55;;;5.80;99.90;;;;;;20720614;28;20034;-80
2023/04/07 23:09:11;;;;;;;5.90;3.60;;;5.90;99.90;;;;;;20739012;28;20130;-80
2023/04/07 23:19:14;;;;;;;5.60;3.27;;;5.80;99.90;;;;;;20731312;28;20034;-78
2023/04/07 23:29:15;;;;;;;8.70;3.40;;;5.90;99.90;;;;;;20631485;28;20389;-79
2023/04/07 23:39:16;;;;;;;6.78;4.00;;;5.90;99.90;;;;;;20644477;28;20047;-79
2023/04/07 23:49:17;;;;;;;6.67;4.23;;;5.80;99.90;;;;;;20663948;28;20035;-79
2023/04/07 23:59:18;;;;;;;6.25;4.28;;;5.80;99.90;;;;;;20631061;28;20042;-78
